createdAt,value
2023-05-14T00:00:35.826Z,24.77
2023-05-14T00:03:23.599Z,24.25
2023-05-14T00:05:51.066Z,23.52
2023-05-14T00:08:18.573Z,26.30
2023-05-14T00:10:45.892Z,27.27
2023-05-14T00:13:13.327Z,25.55
2023-05-14T00:15:40.495Z,25.30
2023-05-14T00:18:08.292Z,24.63
2023-05-14T00:20:35.512Z,22.85
2023-05-14T00:23:02.949Z,19.83
2023-05-14T00:25:30.229Z,16.77
2023-05-14T00:27:57.659Z,15.02
2023-05-14T00:30:25.105Z,13.18
2023-05-14T00:32:54.220Z,13.90
2023-05-14T00:35:22.378Z,12.02
2023-05-14T00:37:49.925Z,13.07
2023-05-14T00:40:17.140Z,13.27
2023-05-14T00:42:45.640Z,14.98
2023-05-14T00:45:12.881Z,14.88
2023-05-14T00:47:41.116Z,15.27
2023-05-14T00:50:10.156Z,14.95
2023-05-14T00:52:38.285Z,15.57
2023-05-14T00:55:07.177Z,14.60
2023-05-14T00:57:36.306Z,15.10
2023-05-14T01:00:04.971Z,15.02
2023-05-14T01:02:32.414Z,18.38
2023-05-14T01:04:59.782Z,18.05
2023-05-14T01:07:47.149Z,18.30
2023-05-14T01:10:23.960Z,18.38
2023-05-14T01:13:10.116Z,16.05
2023-05-14T01:15:38.558Z,13.70
2023-05-14T01:18:09.654Z,13.65
2023-05-14T01:20:37.817Z,12.55
2023-05-14T01:23:05.357Z,13.32
2023-05-14T01:25:32.598Z,14.10
2023-05-14T01:28:18.144Z,14.55
2023-05-14T01:30:52.113Z,16.33
2023-05-14T01:33:21.976Z,16.05
2023-05-14T01:35:49.921Z,18.27
2023-05-14T01:38:20.332Z,17.85
2023-05-14T01:40:49.132Z,18.30
2023-05-14T01:43:17.469Z,18.38
2023-05-14T01:45:44.994Z,17.75
2023-05-14T01:48:13.089Z,19.48
2023-05-14T01:50:41.463Z,19.98
2023-05-14T01:53:08.871Z,20.88
2023-05-14T01:55:36.120Z,19.95
2023-05-14T01:58:04.768Z,20.48
2023-05-14T02:00:33.249Z,21.48
2023-05-14T02:03:00.769Z,24.70
2023-05-14T02:05:28.013Z,25.38
2023-05-14T02:07:55.440Z,27.83
2023-05-14T02:10:23.113Z,27.52
2023-05-14T02:12:50.852Z,28.52
2023-05-14T02:15:18.121Z,28.63
2023-05-14T02:17:45.806Z,27.85
2023-05-14T02:20:13.429Z,29.33
2023-05-14T02:22:45.746Z,28.15
2023-05-14T02:25:13.021Z,18.25
2023-05-14T02:27:40.598Z,15.80
2023-05-14T02:30:09.575Z,16.45
2023-05-14T02:32:37.697Z,17.10
2023-05-14T02:35:06.255Z,16.45
2023-05-14T02:37:34.995Z,17.05
2023-05-14T02:40:02.203Z,17.27
2023-05-14T02:42:29.725Z,18.13
2023-05-14T02:44:56.923Z,16.77
2023-05-14T02:47:24.482Z,17.40
2023-05-14T02:49:51.649Z,19.10
2023-05-14T02:52:21.899Z,19.67
2023-05-14T02:54:49.023Z,18.77
2023-05-14T02:57:16.448Z,18.65
2023-05-14T02:59:43.632Z,21.00
2023-05-14T03:02:11.431Z,22.52
2023-05-14T03:04:39.347Z,24.05
2023-05-14T03:07:06.773Z,25.20
2023-05-14T03:09:37.402Z,27.52
2023-05-14T03:12:08.045Z,24.73
2023-05-14T03:14:35.215Z,27.08
2023-05-14T03:17:04.193Z,31.83
2023-05-14T03:19:31.379Z,44.47
2023-05-14T03:21:58.860Z,40.85
2023-05-14T03:24:26.010Z,37.45
2023-05-14T03:26:53.623Z,34.95
2023-05-14T03:29:20.719Z,31.23
2023-05-14T03:31:48.289Z,30.95
2023-05-14T03:34:15.520Z,27.90
2023-05-14T03:36:43.895Z,32.88
2023-05-14T03:39:11.033Z,30.92
2023-05-14T03:41:39.539Z,29.05
2023-05-14T03:44:06.710Z,27.45
2023-05-14T03:46:34.232Z,23.35
2023-05-14T03:49:01.521Z,23.65
2023-05-14T03:51:29.277Z,27.75
2023-05-14T03:53:58.394Z,28.15
2023-05-14T03:56:26.318Z,29.27
2023-05-14T03:58:53.499Z,30.55
2023-05-14T04:01:20.999Z,29.23
2023-05-14T04:03:48.240Z,30.90
2023-05-14T04:06:16.382Z,30.40
2023-05-14T04:08:43.896Z,28.65
2023-05-14T04:11:12.242Z,25.98
2023-05-14T04:13:39.392Z,23.98
2023-05-14T04:16:07.243Z,24.33
2023-05-14T04:18:35.990Z,23.08
2023-05-14T04:21:03.558Z,19.35
2023-05-14T04:23:31.997Z,17.23
2023-05-14T04:25:59.696Z,16.55
2023-05-14T04:28:27.725Z,18.60
2023-05-14T04:30:55.582Z,17.63
2023-05-14T04:33:22.805Z,21.38
2023-05-14T04:35:50.221Z,19.40
2023-05-14T04:38:17.445Z,19.23
2023-05-14T04:40:44.979Z,17.67
2023-05-14T04:43:13.031Z,13.57
2023-05-14T04:45:41.232Z,14.48
2023-05-14T04:48:09.465Z,12.30
2023-05-14T04:50:36.993Z,11.50
2023-05-14T04:53:04.153Z,11.40
2023-05-14T04:55:31.678Z,9.73
2023-05-14T04:57:58.906Z,9.38
2023-05-14T05:00:26.597Z,10.30
2023-05-14T05:02:53.908Z,9.95
2023-05-14T05:05:21.557Z,11.68
2023-05-14T05:07:49.776Z,9.10
2023-05-14T05:10:17.253Z,9.82
2023-05-14T05:12:44.484Z,10.43
2023-05-14T05:15:11.945Z,11.82
2023-05-14T05:17:39.202Z,12.25
2023-05-14T05:20:09.797Z,11.80
2023-05-14T05:22:37.778Z,12.70
2023-05-14T05:25:06.580Z,12.68
2023-05-14T05:27:33.897Z,13.63
2023-05-14T05:30:04.790Z,13.05
2023-05-14T05:32:32.180Z,14.20
2023-05-14T05:34:59.778Z,11.90
2023-05-14T05:37:26.949Z,12.70
2023-05-14T05:39:54.449Z,11.95
2023-05-14T05:42:22.683Z,12.20
2023-05-14T05:44:50.252Z,13.18
2023-05-14T05:47:17.473Z,12.82
2023-05-14T05:49:44.957Z,12.35
2023-05-14T05:52:12.182Z,10.98
2023-05-14T05:54:40.109Z,6.38
2023-05-14T05:57:07.336Z,6.60
2023-05-14T05:59:34.832Z,6.10
2023-05-14T06:02:02.169Z,6.72
2023-05-14T06:04:29.637Z,6.50
2023-05-14T06:06:56.832Z,6.25
2023-05-14T06:09:24.297Z,6.30
2023-05-14T06:11:51.473Z,7.38
2023-05-14T06:14:18.951Z,5.80
2023-05-14T06:16:46.667Z,5.32
2023-05-14T06:19:14.408Z,4.55
2023-05-14T06:21:41.675Z,4.35
2023-05-14T06:24:09.426Z,4.10
2023-05-14T06:26:36.725Z,4.10
2023-05-14T06:29:04.173Z,3.40
2023-05-14T06:31:31.439Z,2.40
2023-05-14T06:33:58.902Z,3.70
2023-05-14T06:36:26.103Z,2.80
2023-05-14T06:38:53.587Z,2.30
2023-05-14T06:41:21.426Z,2.30
2023-05-14T06:43:49.995Z,2.55
2023-05-14T06:46:17.362Z,2.20
2023-05-14T06:48:44.876Z,1.98
2023-05-14T06:51:13.417Z,2.42
2023-05-14T06:53:41.408Z,2.15
2023-05-14T06:56:08.631Z,1.90
2023-05-14T06:58:36.089Z,1.77
2023-05-14T07:01:03.295Z,2.13
2023-05-14T07:03:30.938Z,1.92
2023-05-14T07:05:59.111Z,1.75
2023-05-14T07:08:26.355Z,2.08
2023-05-14T07:10:53.814Z,1.85
2023-05-14T07:13:21.033Z,1.70
2023-05-14T07:15:48.600Z,1.88
2023-05-14T07:18:15.912Z,2.30
2023-05-14T07:20:43.514Z,1.63
2023-05-14T07:23:10.711Z,2.58
2023-05-14T07:25:38.500Z,1.88
2023-05-14T07:28:05.650Z,1.90
2023-05-14T07:30:34.056Z,1.77
2023-05-14T07:33:01.378Z,2.17
2023-05-14T07:35:29.043Z,1.58
2023-05-14T07:37:56.236Z,1.88
2023-05-14T07:40:25.632Z,1.60
2023-05-14T07:42:53.080Z,1.95
2023-05-14T07:45:21.609Z,1.80
2023-05-14T07:47:52.220Z,1.85
2023-05-14T07:50:20.084Z,1.77
2023-05-14T07:52:47.269Z,2.70
2023-05-14T07:55:14.810Z,2.53
2023-05-14T07:57:42.017Z,1.77
2023-05-14T08:00:09.952Z,3.33
2023-05-14T08:02:40.151Z,1.88
2023-05-14T08:05:08.253Z,2.00
2023-05-14T08:07:35.877Z,2.00
2023-05-14T08:10:03.747Z,1.45
2023-05-14T08:12:31.216Z,1.80
2023-05-14T08:14:58.814Z,1.90
2023-05-14T08:17:26.375Z,2.00
2023-05-14T08:19:55.356Z,1.92
2023-05-14T08:22:22.659Z,1.92
2023-05-14T08:24:50.349Z,1.70
2023-05-14T08:27:17.528Z,2.13
2023-05-14T08:29:45.118Z,1.85
2023-05-14T08:32:22.885Z,2.10
2023-05-14T08:34:52.099Z,1.90
2023-05-14T08:37:19.511Z,2.00
2023-05-14T08:39:47.421Z,1.70
2023-05-14T08:42:18.836Z,2.25
2023-05-14T08:44:53.388Z,1.90
2023-05-14T08:47:24.921Z,1.73
2023-05-14T08:50:08.482Z,1.77
2023-05-14T08:52:37.860Z,1.70
2023-05-14T08:55:06.728Z,2.10
2023-05-14T08:57:37.222Z,2.10
2023-05-14T09:00:12.529Z,2.63
2023-05-14T09:02:47.041Z,2.47
2023-05-14T09:05:19.601Z,2.60
2023-05-14T09:07:47.915Z,2.60
2023-05-14T09:10:18.273Z,2.13
2023-05-14T09:12:48.481Z,2.47
2023-05-14T09:15:16.178Z,2.25
2023-05-14T09:17:49.091Z,2.28
2023-05-14T09:20:19.785Z,1.88
2023-05-14T09:22:49.973Z,2.15
2023-05-14T09:25:19.626Z,2.00
2023-05-14T09:27:50.482Z,2.30
2023-05-14T09:30:18.227Z,2.08
2023-05-14T09:32:46.245Z,2.53
2023-05-14T09:35:17.992Z,1.83
2023-05-14T09:37:47.621Z,1.90
2023-05-14T09:40:15.983Z,1.95
2023-05-14T09:42:43.442Z,1.92
2023-05-14T09:45:11.916Z,2.05
2023-05-14T09:47:40.062Z,1.63
2023-05-14T09:50:08.571Z,1.85
2023-05-14T09:52:36.037Z,2.60
2023-05-14T09:55:04.298Z,1.80
2023-05-14T09:57:32.441Z,1.50
2023-05-14T09:59:59.936Z,1.80
2023-05-14T10:02:37.005Z,1.92
2023-05-14T10:05:06.857Z,1.27
2023-05-14T10:07:40.246Z,2.83
2023-05-14T10:10:11.845Z,1.95
2023-05-14T10:12:41.109Z,2.13
2023-05-14T10:15:19.910Z,2.55
2023-05-14T10:17:57.342Z,1.77
2023-05-14T10:20:25.485Z,1.80
2023-05-14T10:22:52.969Z,1.77
2023-05-14T10:25:21.505Z,2.70
2023-05-14T10:27:51.943Z,3.67
2023-05-14T10:30:23.463Z,3.75
2023-05-14T10:33:07.349Z,2.10
2023-05-14T10:35:54.150Z,3.95
2023-05-14T10:38:33.474Z,2.05
2023-05-14T10:41:06.134Z,2.20
2023-05-14T10:43:39.394Z,2.22
2023-05-14T10:46:10.146Z,2.50
2023-05-14T10:48:39.444Z,2.83
2023-05-14T10:51:11.150Z,1.75
2023-05-14T10:53:41.502Z,2.00
2023-05-14T10:56:11.343Z,2.70
2023-05-14T10:58:46.039Z,3.03
2023-05-14T11:01:14.128Z,2.28
2023-05-14T11:03:46.424Z,2.55
2023-05-14T11:06:16.094Z,2.20
2023-05-14T11:08:44.759Z,1.67
2023-05-14T11:11:12.682Z,3.17
2023-05-14T11:13:41.742Z,3.30
2023-05-14T11:16:22.923Z,10.65
2023-05-14T11:19:03.494Z,4.28
2023-05-14T11:21:33.176Z,3.90
2023-05-14T11:24:01.218Z,2.45
2023-05-14T11:26:29.164Z,2.95
2023-05-14T11:28:56.674Z,17.35
2023-05-14T11:31:25.647Z,3.30
2023-05-14T11:33:53.781Z,8.70
2023-05-14T11:36:22.280Z,8.57
2023-05-14T11:38:51.548Z,2.70
2023-05-14T11:41:21.724Z,2.10
2023-05-14T11:43:49.259Z,2.15
2023-05-14T11:46:18.942Z,2.08
2023-05-14T11:48:46.678Z,2.50
2023-05-14T11:51:14.458Z,2.28
2023-05-14T11:53:42.341Z,1.60
2023-05-14T11:56:10.389Z,2.15
2023-05-14T11:58:37.822Z,1.85
2023-05-14T12:01:05.888Z,1.85
2023-05-14T12:03:34.116Z,1.88
2023-05-14T12:06:06.834Z,1.98
2023-05-14T12:08:34.350Z,1.90
2023-05-14T12:11:02.302Z,1.58
2023-05-14T12:13:31.486Z,4.70
2023-05-14T12:16:03.457Z,1.80
2023-05-14T12:18:33.209Z,1.88
2023-05-14T12:21:07.380Z,2.38
2023-05-14T12:23:34.983Z,2.45
2023-05-14T12:26:07.794Z,1.50
2023-05-14T12:28:43.608Z,2.10
2023-05-14T12:31:12.373Z,2.30
2023-05-14T12:33:39.680Z,2.10
2023-05-14T12:38:37.873Z,2.58
2023-05-14T12:41:05.486Z,1.52
2023-05-14T12:46:27.738Z,2.08
2023-05-14T12:48:55.874Z,1.75
2023-05-14T12:51:23.596Z,2.25
2023-05-14T12:53:54.156Z,2.53
2023-05-14T12:56:22.217Z,2.05
2023-05-14T12:58:49.671Z,1.58
2023-05-14T13:01:16.881Z,1.95
2023-05-14T13:03:44.371Z,1.40
2023-05-14T13:06:11.717Z,1.52
2023-05-14T13:08:40.502Z,2.70
2023-05-14T13:11:10.045Z,1.63
2023-05-14T13:13:40.150Z,1.80
2023-05-14T13:16:09.037Z,1.77
2023-05-14T13:18:36.646Z,1.60
2023-05-14T13:21:06.531Z,1.60
2023-05-14T13:23:35.050Z,1.80
2023-05-14T13:26:02.979Z,1.55
2023-05-14T13:28:30.682Z,2.05
2023-05-14T13:31:09.533Z,1.67
2023-05-14T13:33:38.800Z,2.67
2023-05-14T13:36:06.583Z,2.28
2023-05-14T13:38:35.893Z,1.40
2023-05-14T13:41:03.194Z,1.95
2023-05-14T13:43:32.260Z,1.48
2023-05-14T13:45:59.979Z,3.80
2023-05-14T13:48:28.783Z,2.00
2023-05-14T13:50:56.152Z,1.73
2023-05-14T13:53:25.252Z,1.80
2023-05-14T13:55:58.336Z,1.90
2023-05-14T13:58:27.510Z,1.70
2023-05-14T14:00:54.799Z,1.70
2023-05-14T14:03:22.534Z,1.70
2023-05-14T14:05:50.332Z,1.75
2023-05-14T14:08:24.011Z,2.15
2023-05-14T14:10:53.218Z,2.20
2023-05-14T14:13:21.597Z,2.38
2023-05-14T14:15:49.421Z,2.63
2023-05-14T14:18:17.076Z,2.03
2023-05-14T14:20:44.518Z,2.38
2023-05-14T14:23:12.189Z,2.40
2023-05-14T14:25:39.769Z,2.15
2023-05-14T14:28:07.394Z,2.60
2023-05-14T14:30:35.732Z,2.20
2023-05-14T14:33:03.516Z,1.90
2023-05-14T14:35:32.984Z,1.85
2023-05-14T14:38:00.647Z,1.50
2023-05-14T14:40:28.067Z,1.90
2023-05-14T14:42:55.696Z,2.80
2023-05-14T14:45:23.475Z,2.20
2023-05-14T14:47:51.551Z,1.92
2023-05-14T14:50:18.911Z,2.70
2023-05-14T14:52:48.225Z,2.30
2023-05-14T14:55:15.679Z,2.25
2023-05-14T14:57:43.464Z,2.13
2023-05-14T15:00:12.563Z,1.77
2023-05-14T15:02:42.877Z,1.70
2023-05-14T15:05:10.395Z,1.40
2023-05-14T15:07:38.106Z,1.45
2023-05-14T15:10:06.297Z,1.92
2023-05-14T15:12:33.949Z,1.90
2023-05-14T15:15:01.377Z,2.10
2023-05-14T15:17:29.039Z,1.83
2023-05-14T15:19:56.395Z,1.77
2023-05-14T15:22:24.176Z,2.10
2023-05-14T15:24:52.515Z,2.38
2023-05-14T15:27:20.265Z,2.28
2023-05-14T15:29:47.682Z,2.00
2023-05-14T15:32:17.351Z,2.30
2023-05-14T15:34:44.905Z,2.40
2023-05-14T15:37:12.639Z,3.13
2023-05-14T15:39:40.115Z,2.90
2023-05-14T15:42:08.750Z,3.28
2023-05-14T15:44:38.847Z,3.53
2023-05-14T15:47:06.850Z,4.32
2023-05-14T15:49:34.171Z,3.92
2023-05-14T15:52:03.009Z,3.35
2023-05-14T15:54:30.473Z,4.40
2023-05-14T15:56:59.066Z,4.78
2023-05-14T15:59:26.409Z,4.70
2023-05-14T16:01:54.240Z,4.38
2023-05-14T16:04:21.529Z,4.53
2023-05-14T16:06:51.370Z,3.33
2023-05-14T16:09:18.610Z,2.92
2023-05-14T16:11:46.220Z,2.58
2023-05-14T16:14:13.420Z,2.50
2023-05-14T16:16:41.292Z,2.85
2023-05-14T16:19:08.568Z,2.92
2023-05-14T16:21:36.304Z,2.83
2023-05-14T16:24:03.796Z,3.67
2023-05-14T16:26:31.452Z,4.15
2023-05-14T16:28:58.687Z,2.72
2023-05-14T16:31:26.258Z,4.60
2023-05-14T16:33:53.435Z,6.50
2023-05-14T16:36:21.054Z,4.72
2023-05-14T16:39:06.238Z,3.08
2023-05-14T16:41:36.227Z,3.97
2023-05-14T16:44:03.736Z,3.53
2023-05-14T16:46:31.464Z,3.33
2023-05-14T16:48:58.825Z,3.10
2023-05-14T16:51:26.455Z,3.17
2023-05-14T16:53:56.716Z,3.03
2023-05-14T16:56:24.508Z,1.90
2023-05-14T16:58:51.775Z,1.80
2023-05-14T17:01:19.391Z,1.80
2023-05-14T17:03:46.975Z,3.10
2023-05-14T17:06:15.645Z,2.75
2023-05-14T17:08:42.898Z,2.97
2023-05-14T17:11:10.627Z,3.30
2023-05-14T17:13:57.851Z,1.85
2023-05-14T17:16:25.483Z,1.50
2023-05-14T17:18:55.198Z,2.28
2023-05-14T17:21:22.830Z,2.70
2023-05-14T17:23:51.053Z,2.03
2023-05-14T17:26:22.623Z,2.25
2023-05-14T17:28:50.250Z,2.70
2023-05-14T17:31:18.104Z,2.40
2023-05-14T17:33:46.904Z,2.10
2023-05-14T17:36:14.534Z,3.33
2023-05-14T17:38:41.835Z,2.95
2023-05-14T17:41:09.995Z,3.20
2023-05-14T17:43:37.333Z,4.20
2023-05-14T17:46:05.466Z,3.92
2023-05-14T17:48:37.222Z,3.05
2023-05-14T17:51:06.213Z,3.15
2023-05-14T17:53:33.582Z,3.35
2023-05-14T17:56:02.167Z,5.28
2023-05-14T17:58:30.241Z,11.10
2023-05-14T18:00:58.041Z,5.43
2023-05-14T18:03:27.798Z,3.38
2023-05-14T18:05:55.523Z,3.67
2023-05-14T18:08:23.763Z,2.55
2023-05-14T18:10:52.513Z,2.40
2023-05-14T18:13:19.678Z,2.58
2023-05-14T18:16:29.459Z,2.90
2023-05-14T18:18:57.248Z,4.43
2023-05-14T18:21:24.840Z,2.78
2023-05-14T18:23:52.977Z,4.75
2023-05-14T18:26:22.216Z,3.58
2023-05-14T18:28:49.598Z,2.35
2023-05-14T18:31:17.287Z,4.45
2023-05-14T18:33:44.643Z,4.00
2023-05-14T18:36:12.299Z,4.10
2023-05-14T18:38:41.068Z,4.88
2023-05-14T18:41:08.733Z,4.50
2023-05-14T18:43:36.111Z,4.72
2023-05-14T18:46:04.008Z,3.97
2023-05-14T18:48:32.249Z,4.43
2023-05-14T18:50:59.792Z,3.20
2023-05-14T18:53:27.551Z,3.47
2023-05-14T18:55:55.803Z,3.00
2023-05-14T18:58:23.142Z,3.20
2023-05-14T19:00:50.935Z,3.67
2023-05-14T19:03:20.297Z,3.15
2023-05-14T19:05:48.269Z,3.17
2023-05-14T19:08:15.832Z,4.07
2023-05-14T19:10:43.529Z,5.35
2023-05-14T19:13:11.790Z,6.93
2023-05-14T19:15:39.635Z,5.55
2023-05-14T19:18:07.239Z,5.75
2023-05-14T19:20:34.991Z,5.60
2023-05-14T19:23:02.373Z,5.18
2023-05-14T19:25:30.071Z,4.90
2023-05-14T19:27:57.832Z,4.70
2023-05-14T19:30:25.870Z,4.53
2023-05-14T19:32:54.018Z,4.35
2023-05-14T19:35:21.818Z,4.38
2023-05-14T19:37:49.288Z,4.03
2023-05-14T19:40:16.980Z,3.38
2023-05-14T19:42:44.289Z,3.55
2023-05-14T19:45:11.927Z,3.08
2023-05-14T19:47:39.448Z,4.07
2023-05-14T19:50:08.591Z,4.25
2023-05-14T19:52:35.971Z,4.65
2023-05-14T19:55:03.902Z,4.32
2023-05-14T19:57:31.391Z,4.00
2023-05-14T19:59:59.000Z,3.90
2023-05-14T20:02:27.225Z,3.42
2023-05-14T20:04:56.904Z,3.05
2023-05-14T20:07:25.263Z,3.33
2023-05-14T20:09:52.825Z,2.80
2023-05-14T20:12:20.161Z,2.75
2023-05-14T20:14:47.810Z,2.90
2023-05-14T20:17:15.479Z,3.13
2023-05-14T20:19:43.988Z,2.50
2023-05-14T20:22:11.508Z,3.40
2023-05-14T20:24:41.356Z,2.88
2023-05-14T20:27:08.771Z,3.05
2023-05-14T20:29:36.322Z,2.35
2023-05-14T20:32:03.714Z,2.75
2023-05-14T20:34:31.333Z,2.90
2023-05-14T20:36:58.720Z,2.75
2023-05-14T20:39:26.513Z,2.75
2023-05-14T20:41:53.811Z,3.75
2023-05-14T20:44:21.435Z,2.22
2023-05-14T20:46:48.942Z,2.83
2023-05-14T20:49:16.767Z,3.17
2023-05-14T20:51:44.032Z,2.63
2023-05-14T20:54:11.664Z,2.95
2023-05-14T20:56:39.035Z,2.42
2023-05-14T20:59:06.632Z,2.70
2023-05-14T21:09:12.465Z,2.75
2023-05-14T21:11:40.128Z,2.88
2023-05-14T21:14:07.298Z,2.22
2023-05-14T21:16:36.061Z,3.53
2023-05-14T21:19:03.268Z,2.28
2023-05-14T21:21:30.848Z,2.70
2023-05-14T21:23:58.250Z,2.78
2023-05-14T21:26:26.873Z,2.78
2023-05-14T21:28:53.990Z,2.17
2023-05-14T21:31:21.637Z,2.15
2023-05-14T21:33:48.828Z,2.80
2023-05-14T21:36:16.330Z,2.40
2023-05-14T21:38:43.602Z,3.05
2023-05-14T21:41:11.181Z,2.20
2023-05-14T21:43:40.810Z,1.77
2023-05-14T21:46:08.750Z,1.95
2023-05-14T21:48:36.025Z,2.42
2023-05-14T21:51:03.780Z,2.22
2023-05-14T21:53:30.949Z,2.25
2023-05-14T21:55:58.525Z,2.20
2023-05-14T21:58:25.693Z,2.10
2023-05-14T22:00:53.218Z,3.40
2023-05-14T22:03:20.662Z,2.67
2023-05-14T22:05:49.315Z,2.38
2023-05-14T22:08:17.746Z,2.22
2023-05-14T22:10:48.144Z,2.60
2023-05-14T22:13:15.475Z,2.47
2023-05-14T22:15:43.205Z,2.50
2023-05-14T22:18:10.573Z,2.30
2023-05-14T22:20:38.414Z,2.28
2023-05-14T22:23:06.383Z,2.40
2023-05-14T22:25:33.941Z,2.67
2023-05-14T22:28:03.423Z,2.60
2023-05-14T22:30:31.862Z,2.65
2023-05-14T22:32:59.112Z,2.20
2023-05-14T22:35:27.003Z,3.38
2023-05-14T22:37:54.297Z,2.78
2023-05-14T22:40:21.851Z,2.90
2023-05-14T22:42:49.083Z,2.85
2023-05-14T22:45:16.760Z,2.65
2023-05-14T22:47:43.965Z,2.25
2023-05-14T22:50:12.608Z,2.85
2023-05-14T22:52:41.614Z,2.60
2023-05-14T22:55:09.977Z,2.78
2023-05-14T22:57:37.307Z,2.40
2023-05-14T23:00:05.532Z,2.53
2023-05-14T23:02:33.296Z,2.75
2023-05-14T23:05:01.641Z,4.00
2023-05-14T23:07:29.108Z,3.08
2023-05-14T23:09:56.653Z,2.60
2023-05-14T23:12:24.880Z,2.83
2023-05-14T23:14:52.791Z,2.47
2023-05-14T23:17:19.913Z,2.83
2023-05-14T23:19:48.159Z,2.30
2023-05-14T23:22:15.396Z,2.30
2023-05-14T23:24:43.343Z,2.70
2023-05-14T23:27:11.846Z,2.53
2023-05-14T23:29:39.372Z,2.88
2023-05-14T23:32:07.054Z,3.00
2023-05-14T23:34:34.930Z,3.20
2023-05-14T23:37:02.476Z,3.10
2023-05-14T23:39:30.218Z,2.90
2023-05-14T23:41:57.336Z,3.47
2023-05-14T23:44:24.958Z,2.55
2023-05-14T23:46:52.167Z,3.38
2023-05-14T23:49:20.195Z,3.05
2023-05-14T23:51:47.382Z,3.35
2023-05-14T23:54:14.969Z,3.45
2023-05-14T23:56:42.192Z,3.40
2023-05-14T23:59:09.726Z,2.60
